00AL weather

Epps Airpark
Harvest, Alabama, United States

Public forecast

Using degrees Fahrenheit for public forecast. Weather courtesy of forecast.io.

METAR (pilot weather report)

Closest report is Madison County Executive Airport-Tom Sharp Jr Field, 10.5 nm (19.4 km) E. Retrieved 2019/08/22 08:35 UTC (0 seconds ago):

KMDQ 220835Z AUTO 00000KT 10SM CLR 22/21 A3005 RMK A02 T02210206

TAF (pilot weather forecast)

Closest forecast is Huntsville International Carl T Jones Field, 13.7 nm (25.3 km) S. Retrieved 2019/08/22 06:39 UTC (2 hours ago):

TAF KHSV 220537Z 2206/2306 18003KT P6SM FEW200 FM221600 21007KT P6SM SCT040 PROB30 2219/2301 4SM TSRA BKN035CB